Mount Nebo, Pennsylvania
Current Conditions -  °F | °C
As of 9:53 AM on Sunday 23 Nov 2014 (Local Time) from KLNS Reporting Station
Overcast Overcast  
Wind Chill: 41°   Ceiling: 11000
Heat Index: 44°   Visibility: 10mi
Dew Point: 22°   Wind: 6mph
Humidity: 42%   Direction: 240°WSW
Pressure: 30.21"   Gusts: NA
Location:  39.9024°N, 76.3233°W
Report Text: KLNS 231453Z 24005KT 10SM OVC110 07/M06 A3021 RMK AO2 SLP234 T00671056 51001
Loading
Personal Weather Stations






























Interactive Weather Map New forecast layout! Learn more

10-Day Weather Forecast

Advertisements
Track Severe Weather on mobile